sensor_id;sensor_type;location;lat;lon;timestamp;temperature;humidity
2999;DHT22;1509;51.964;7.628;2023-05-07T00:01:42;16.00;99.90
2999;DHT22;1509;51.964;7.628;2023-05-07T00:04:08;16.10;99.90
2999;DHT22;1509;51.964;7.628;2023-05-07T00:06:34;16.10;99.90
2999;DHT22;1509;51.964;7.628;2023-05-07T00:08:59;16.10;99.90
2999;DHT22;1509;51.964;7.628;2023-05-07T00:11:26;16.00;99.90
2999;DHT22;1509;51.964;7.628;2023-05-07T00:13:52;16.00;99.90
2999;DHT22;1509;51.964;7.628;2023-05-07T00:16:18;16.00;99.90
2999;DHT22;1509;51.964;7.628;2023-05-07T00:18:43;16.00;99.90
2999;DHT22;1509;51.964;7.628;2023-05-07T00:21:09;16.00;99.90
2999;DHT22;1509;51.964;7.628;2023-05-07T00:23:35;16.00;99.90
2999;DHT22;1509;51.964;7.628;2023-05-07T00:26:03;16.00;99.90
2999;DHT22;1509;51.964;7.628;2023-05-07T00:28:29;16.00;99.90
2999;DHT22;1509;51.964;7.628;2023-05-07T00:33:21;16.00;99.90
2999;DHT22;1509;51.964;7.628;2023-05-07T00:35:48;16.00;99.90
2999;DHT22;1509;51.964;7.628;2023-05-07T00:38:14;16.00;99.90
2999;DHT22;1509;51.964;7.628;2023-05-07T00:40:40;15.90;99.90
2999;DHT22;1509;51.964;7.628;2023-05-07T00:43:06;15.90;99.90
2999;DHT22;1509;51.964;7.628;2023-05-07T00:45:33;16.00;99.90
2999;DHT22;1509;51.964;7.628;2023-05-07T00:50:26;16.00;99.90
2999;DHT22;1509;51.964;7.628;2023-05-07T02:01:23;15.30;99.90
2999;DHT22;1509;51.964;7.628;2023-05-07T02:11:07;15.10;99.90
2999;DHT22;1509;51.964;7.628;2023-05-07T02:13:35;15.00;99.90
2999;DHT22;1509;51.964;7.628;2023-05-07T02:16:01;15.10;99.90
2999;DHT22;1509;51.964;7.628;2023-05-07T02:18:27;15.00;99.90
2999;DHT22;1509;51.964;7.628;2023-05-07T02:25:45;15.00;99.90
2999;DHT22;1509;51.964;7.628;2023-05-07T02:30:38;14.90;99.90
2999;DHT22;1509;51.964;7.628;2023-05-07T02:40:22;14.90;99.90
2999;DHT22;1509;51.964;7.628;2023-05-07T02:47:40;14.90;99.90
2999;DHT22;1509;51.964;7.628;2023-05-07T02:54:58;14.80;99.90
2999;DHT22;1509;51.964;7.628;2023-05-07T02:57:26;14.80;99.90
2999;DHT22;1509;51.964;7.628;2023-05-07T03:02:18;14.80;99.90
2999;DHT22;1509;51.964;7.628;2023-05-07T03:19:20;14.60;99.90
2999;DHT22;1509;51.964;7.628;2023-05-07T03:21:45;14.60;99.90
2999;DHT22;1509;51.964;7.628;2023-05-07T03:24:11;14.60;99.90
2999;DHT22;1509;51.964;7.628;2023-05-07T03:26:37;14.60;99.90
2999;DHT22;1509;51.964;7.628;2023-05-07T03:29:02;14.50;99.90
2999;DHT22;1509;51.964;7.628;2023-05-07T03:31:28;14.40;99.90
2999;DHT22;1509;51.964;7.628;2023-05-07T03:33:55;14.40;99.90
2999;DHT22;1509;51.964;7.628;2023-05-07T03:41:14;14.40;99.90
2999;DHT22;1509;51.964;7.628;2023-05-07T03:43:39;14.40;99.90
2999;DHT22;1509;51.964;7.628;2023-05-07T03:46:05;14.40;99.90
2999;DHT22;1509;51.964;7.628;2023-05-07T03:48:31;14.40;99.90
2999;DHT22;1509;51.964;7.628;2023-05-07T03:51:05;14.40;99.90
2999;DHT22;1509;51.964;7.628;2023-05-07T03:53:30;14.40;99.90
2999;DHT22;1509;51.964;7.628;2023-05-07T03:55:56;14.30;99.90
2999;DHT22;1509;51.964;7.628;2023-05-07T04:10:35;14.20;99.90
2999;DHT22;1509;51.964;7.628;2023-05-07T04:13:01;14.10;99.90
2999;DHT22;1509;51.964;7.628;2023-05-07T04:15:26;14.10;99.90
2999;DHT22;1509;51.964;7.628;2023-05-07T04:17:52;14.20;99.90
2999;DHT22;1509;51.964;7.628;2023-05-07T04:20:17;14.20;99.90
2999;DHT22;1509;51.964;7.628;2023-05-07T04:22:43;14.20;99.90
2999;DHT22;1509;51.964;7.628;2023-05-07T04:25:09;14.20;99.90
2999;DHT22;1509;51.964;7.628;2023-05-07T04:27:35;14.20;99.90
2999;DHT22;1509;51.964;7.628;2023-05-07T04:30:02;14.20;99.90
2999;DHT22;1509;51.964;7.628;2023-05-07T04:32:28;14.20;99.90
2999;DHT22;1509;51.964;7.628;2023-05-07T04:34:55;14.20;99.90
2999;DHT22;1509;51.964;7.628;2023-05-07T04:37:21;14.20;99.90
2999;DHT22;1509;51.964;7.628;2023-05-07T04:39:47;14.30;99.90
2999;DHT22;1509;51.964;7.628;2023-05-07T04:42:16;14.30;99.90
2999;DHT22;1509;51.964;7.628;2023-05-07T04:44:43;14.40;99.90
2999;DHT22;1509;51.964;7.628;2023-05-07T04:47:09;14.40;99.90
2999;DHT22;1509;51.964;7.628;2023-05-07T04:49:36;14.30;99.90
2999;DHT22;1509;51.964;7.628;2023-05-07T04:52:02;14.40;99.90
2999;DHT22;1509;51.964;7.628;2023-05-07T04:54:28;14.40;99.90
2999;DHT22;1509;51.964;7.628;2023-05-07T04:56:55;14.40;99.90
2999;DHT22;1509;51.964;7.628;2023-05-07T04:59:20;14.40;99.90
2999;DHT22;1509;51.964;7.628;2023-05-07T05:01:46;14.40;99.90
2999;DHT22;1509;51.964;7.628;2023-05-07T05:04:12;14.40;99.90
2999;DHT22;1509;51.964;7.628;2023-05-07T05:06:38;14.40;99.90
2999;DHT22;1509;51.964;7.628;2023-05-07T05:09:04;14.40;99.90
2999;DHT22;1509;51.964;7.628;2023-05-07T05:11:30;14.50;99.90
2999;DHT22;1509;51.964;7.628;2023-05-07T05:13:56;14.50;99.90
2999;DHT22;1509;51.964;7.628;2023-05-07T05:16:22;14.50;99.90
2999;DHT22;1509;51.964;7.628;2023-05-07T05:18:50;14.40;99.90
2999;DHT22;1509;51.964;7.628;2023-05-07T05:21:17;14.50;99.90
2999;DHT22;1509;51.964;7.628;2023-05-07T05:23:43;14.50;99.90
2999;DHT22;1509;51.964;7.628;2023-05-07T05:26:09;14.50;99.90
2999;DHT22;1509;51.964;7.628;2023-05-07T05:28:34;14.40;99.90
2999;DHT22;1509;51.964;7.628;2023-05-07T05:31:00;14.40;99.90
2999;DHT22;1509;51.964;7.628;2023-05-07T05:35:53;14.50;99.90
2999;DHT22;1509;51.964;7.628;2023-05-07T05:40:46;14.40;99.90
2999;DHT22;1509;51.964;7.628;2023-05-07T05:48:04;14.50;99.90
2999;DHT22;1509;51.964;7.628;2023-05-07T05:50:30;14.60;99.90
2999;DHT22;1509;51.964;7.628;2023-05-07T05:52:55;14.70;99.90
2999;DHT22;1509;51.964;7.628;2023-05-07T05:55:21;14.70;99.90
2999;DHT22;1509;51.964;7.628;2023-05-07T06:00:14;14.90;99.90
2999;DHT22;1509;51.964;7.628;2023-05-07T06:02:42;14.90;99.90
2999;DHT22;1509;51.964;7.628;2023-05-07T06:10:02;14.70;99.90
2999;DHT22;1509;51.964;7.628;2023-05-07T06:12:28;14.80;99.90
2999;DHT22;1509;51.964;7.628;2023-05-07T06:14:59;14.80;99.90
2999;DHT22;1509;51.964;7.628;2023-05-07T06:17:25;14.90;99.90
2999;DHT22;1509;51.964;7.628;2023-05-07T06:24:43;14.80;99.90
2999;DHT22;1509;51.964;7.628;2023-05-07T06:27:08;14.80;99.90
2999;DHT22;1509;51.964;7.628;2023-05-07T06:41:54;15.00;99.90
2999;DHT22;1509;51.964;7.628;2023-05-07T06:51:38;15.60;99.90
2999;DHT22;1509;51.964;7.628;2023-05-07T06:54:04;15.50;99.90
2999;DHT22;1509;51.964;7.628;2023-05-07T06:56:31;15.70;99.90
2999;DHT22;1509;51.964;7.628;2023-05-07T06:58:56;15.80;99.90
2999;DHT22;1509;51.964;7.628;2023-05-07T07:01:22;15.80;99.90
2999;DHT22;1509;51.964;7.628;2023-05-07T07:03:48;15.80;99.90
2999;DHT22;1509;51.964;7.628;2023-05-07T07:06:14;15.80;99.90
2999;DHT22;1509;51.964;7.628;2023-05-07T07:08:39;15.80;99.90
2999;DHT22;1509;51.964;7.628;2023-05-07T07:11:06;15.90;99.90
2999;DHT22;1509;51.964;7.628;2023-05-07T07:13:31;16.00;99.90
2999;DHT22;1509;51.964;7.628;2023-05-07T07:15:57;16.10;99.90
2999;DHT22;1509;51.964;7.628;2023-05-07T07:18:26;16.20;99.90
2999;DHT22;1509;51.964;7.628;2023-05-07T07:20:51;16.30;99.90
2999;DHT22;1509;51.964;7.628;2023-05-07T07:23:17;16.40;99.90
2999;DHT22;1509;51.964;7.628;2023-05-07T07:25:43;16.40;99.90
2999;DHT22;1509;51.964;7.628;2023-05-07T07:28:08;16.40;99.90
2999;DHT22;1509;51.964;7.628;2023-05-07T07:30:34;16.40;99.90
2999;DHT22;1509;51.964;7.628;2023-05-07T07:33:00;16.30;99.90
2999;DHT22;1509;51.964;7.628;2023-05-07T07:35:31;16.20;99.90
2999;DHT22;1509;51.964;7.628;2023-05-07T07:42:54;16.30;99.90
2999;DHT22;1509;51.964;7.628;2023-05-07T07:45:20;16.40;99.90
2999;DHT22;1509;51.964;7.628;2023-05-07T07:47:51;16.50;99.90
2999;DHT22;1509;51.964;7.628;2023-05-07T07:50:17;16.60;99.90
2999;DHT22;1509;51.964;7.628;2023-05-07T07:52:43;16.60;99.90
2999;DHT22;1509;51.964;7.628;2023-05-07T07:55:09;16.70;99.90
2999;DHT22;1509;51.964;7.628;2023-05-07T07:57:37;16.90;99.90
2999;DHT22;1509;51.964;7.628;2023-05-07T08:00:06;17.00;99.90
2999;DHT22;1509;51.964;7.628;2023-05-07T08:07:25;17.30;99.90
2999;DHT22;1509;51.964;7.628;2023-05-07T08:09:50;17.30;99.90
2999;DHT22;1509;51.964;7.628;2023-05-07T08:12:16;17.40;99.90
2999;DHT22;1509;51.964;7.628;2023-05-07T08:14:45;17.50;99.90
2999;DHT22;1509;51.964;7.628;2023-05-07T08:17:10;17.70;99.90
2999;DHT22;1509;51.964;7.628;2023-05-07T08:26:58;17.80;99.90
2999;DHT22;1509;51.964;7.628;2023-05-07T08:29:24;17.80;99.90
2999;DHT22;1509;51.964;7.628;2023-05-07T08:31:49;17.80;99.90
2999;DHT22;1509;51.964;7.628;2023-05-07T08:41:34;17.70;99.90
2999;DHT22;1509;51.964;7.628;2023-05-07T08:44:01;17.90;99.90
2999;DHT22;1509;51.964;7.628;2023-05-07T08:46:31;18.00;99.90
2999;DHT22;1509;51.964;7.628;2023-05-07T08:51:23;18.20;99.90
2999;DHT22;1509;51.964;7.628;2023-05-07T08:53:49;18.10;99.90
2999;DHT22;1509;51.964;7.628;2023-05-07T08:56:16;18.10;99.90
2999;DHT22;1509;51.964;7.628;2023-05-07T09:01:15;18.00;99.90
2999;DHT22;1509;51.964;7.628;2023-05-07T09:03:44;18.10;99.90
2999;DHT22;1509;51.964;7.628;2023-05-07T09:06:11;18.30;99.90
2999;DHT22;1509;51.964;7.628;2023-05-07T09:08:36;18.50;99.90
2999;DHT22;1509;51.964;7.628;2023-05-07T09:13:29;19.10;99.90
2999;DHT22;1509;51.964;7.628;2023-05-07T09:18:26;18.50;99.90
2999;DHT22;1509;51.964;7.628;2023-05-07T09:20:51;18.70;99.90
2999;DHT22;1509;51.964;7.628;2023-05-07T09:23:17;18.80;99.90
2999;DHT22;1509;51.964;7.628;2023-05-07T09:28:09;20.10;99.90
2999;DHT22;1509;51.964;7.628;2023-05-07T09:30:36;20.70;99.90
2999;DHT22;1509;51.964;7.628;2023-05-07T09:35:30;22.00;99.90
2999;DHT22;1509;51.964;7.628;2023-05-07T09:38:00;22.50;99.90
2999;DHT22;1509;51.964;7.628;2023-05-07T09:50:36;24.80;99.90
2999;DHT22;1509;51.964;7.628;2023-05-07T09:55:30;24.30;99.90
2999;DHT22;1509;51.964;7.628;2023-05-07T09:57:57;23.90;99.90
2999;DHT22;1509;51.964;7.628;2023-05-07T10:00:25;23.40;99.90
2999;DHT22;1509;51.964;7.628;2023-05-07T10:02:56;23.60;99.90
2999;DHT22;1509;51.964;7.628;2023-05-07T10:05:22;24.10;99.90
2999;DHT22;1509;51.964;7.628;2023-05-07T10:07:49;24.90;99.90
2999;DHT22;1509;51.964;7.628;2023-05-07T10:10:16;25.60;99.90
2999;DHT22;1509;51.964;7.628;2023-05-07T10:12:42;25.30;99.90
2999;DHT22;1509;51.964;7.628;2023-05-07T10:15:09;25.60;99.90
2999;DHT22;1509;51.964;7.628;2023-05-07T10:17:37;25.90;99.90
2999;DHT22;1509;51.964;7.628;2023-05-07T10:20:04;26.70;99.90
2999;DHT22;1509;51.964;7.628;2023-05-07T10:22:36;27.20;99.90
2999;DHT22;1509;51.964;7.628;2023-05-07T10:25:05;27.00;99.90
2999;DHT22;1509;51.964;7.628;2023-05-07T10:27:36;26.10;99.90
2999;DHT22;1509;51.964;7.628;2023-05-07T10:30:19;25.40;99.90
2999;DHT22;1509;51.964;7.628;2023-05-07T10:32:53;25.60;99.90
2999;DHT22;1509;51.964;7.628;2023-05-07T10:35:23;25.80;99.90
2999;DHT22;1509;51.964;7.628;2023-05-07T10:37:50;26.40;99.90
2999;DHT22;1509;51.964;7.628;2023-05-07T10:40:16;26.90;99.90
2999;DHT22;1509;51.964;7.628;2023-05-07T10:42:58;27.00;99.90
2999;DHT22;1509;51.964;7.628;2023-05-07T10:45:28;26.80;99.90
2999;DHT22;1509;51.964;7.628;2023-05-07T10:50:40;26.90;99.90
2999;DHT22;1509;51.964;7.628;2023-05-07T10:55:51;26.10;99.90
2999;DHT22;1509;51.964;7.628;2023-05-07T10:58:28;25.90;99.90
2999;DHT22;1509;51.964;7.628;2023-05-07T11:01:01;25.80;99.90
2999;DHT22;1509;51.964;7.628;2023-05-07T11:03:28;25.80;99.90
2999;DHT22;1509;51.964;7.628;2023-05-07T11:06:10;26.00;99.90
2999;DHT22;1509;51.964;7.628;2023-05-07T11:08:55;26.40;99.90
2999;DHT22;1509;51.964;7.628;2023-05-07T11:11:45;27.10;99.90
2999;DHT22;1509;51.964;7.628;2023-05-07T11:17:09;27.80;99.90
2999;DHT22;1509;51.964;7.628;2023-05-07T11:19:51;27.80;99.90
2999;DHT22;1509;51.964;7.628;2023-05-07T11:25:02;26.80;99.90
2999;DHT22;1509;51.964;7.628;2023-05-07T11:27:29;27.30;99.90
2999;DHT22;1509;51.964;7.628;2023-05-07T11:29:55;27.50;99.90
2999;DHT22;1509;51.964;7.628;2023-05-07T11:32:26;27.60;99.90
2999;DHT22;1509;51.964;7.628;2023-05-07T11:34:53;27.80;99.90
2999;DHT22;1509;51.964;7.628;2023-05-07T11:37:20;28.00;99.90
2999;DHT22;1509;51.964;7.628;2023-05-07T11:39:46;28.30;99.90
2999;DHT22;1509;51.964;7.628;2023-05-07T11:42:37;28.80;99.90
2999;DHT22;1509;51.964;7.628;2023-05-07T11:45:05;29.40;99.90
2999;DHT22;1509;51.964;7.628;2023-05-07T11:47:31;29.50;99.90
2999;DHT22;1509;51.964;7.628;2023-05-07T11:49:57;29.90;99.90
2999;DHT22;1509;51.964;7.628;2023-05-07T11:52:27;30.30;99.90
2999;DHT22;1509;51.964;7.628;2023-05-07T11:54:55;30.60;99.90
2999;DHT22;1509;51.964;7.628;2023-05-07T11:57:22;30.20;99.90
2999;DHT22;1509;51.964;7.628;2023-05-07T11:59:52;29.10;99.90
2999;DHT22;1509;51.964;7.628;2023-05-07T12:02:17;29.20;99.90
2999;DHT22;1509;51.964;7.628;2023-05-07T12:04:44;28.70;99.90
2999;DHT22;1509;51.964;7.628;2023-05-07T12:07:15;29.00;99.90
2999;DHT22;1509;51.964;7.628;2023-05-07T12:09:41;29.50;99.90
2999;DHT22;1509;51.964;7.628;2023-05-07T12:12:09;30.00;99.90
2999;DHT22;1509;51.964;7.628;2023-05-07T12:14:39;30.50;99.90
2999;DHT22;1509;51.964;7.628;2023-05-07T12:17:09;30.70;99.90
2999;DHT22;1509;51.964;7.628;2023-05-07T12:19:41;29.90;99.90
2999;DHT22;1509;51.964;7.628;2023-05-07T12:22:10;30.30;99.90
2999;DHT22;1509;51.964;7.628;2023-05-07T12:25:09;30.10;99.90
2999;DHT22;1509;51.964;7.628;2023-05-07T12:27:37;30.10;99.90
2999;DHT22;1509;51.964;7.628;2023-05-07T12:30:03;30.10;99.90
2999;DHT22;1509;51.964;7.628;2023-05-07T12:32:29;29.90;99.90
2999;DHT22;1509;51.964;7.628;2023-05-07T12:34:55;28.80;99.90
2999;DHT22;1509;51.964;7.628;2023-05-07T12:37:30;27.20;99.90
2999;DHT22;1509;51.964;7.628;2023-05-07T12:42:35;27.60;99.90
2999;DHT22;1509;51.964;7.628;2023-05-07T12:45:10;26.70;99.90
2999;DHT22;1509;51.964;7.628;2023-05-07T12:47:36;26.60;99.90
2999;DHT22;1509;51.964;7.628;2023-05-07T12:50:05;26.00;99.90
2999;DHT22;1509;51.964;7.628;2023-05-07T12:52:34;26.30;99.90
2999;DHT22;1509;51.964;7.628;2023-05-07T12:55:07;27.10;99.90
2999;DHT22;1509;51.964;7.628;2023-05-07T12:57:41;27.90;99.90
2999;DHT22;1509;51.964;7.628;2023-05-07T13:00:07;28.20;99.90
2999;DHT22;1509;51.964;7.628;2023-05-07T13:02:43;27.90;99.90
2999;DHT22;1509;51.964;7.628;2023-05-07T13:05:17;26.30;99.90
2999;DHT22;1509;51.964;7.628;2023-05-07T13:07:56;26.50;99.90
2999;DHT22;1509;51.964;7.628;2023-05-07T13:10:24;26.70;99.90
2999;DHT22;1509;51.964;7.628;2023-05-07T13:12:51;26.80;99.90
2999;DHT22;1509;51.964;7.628;2023-05-07T13:15:17;26.90;99.90
2999;DHT22;1509;51.964;7.628;2023-05-07T13:17:43;27.00;99.90
2999;DHT22;1509;51.964;7.628;2023-05-07T13:20:10;26.50;99.90
2999;DHT22;1509;51.964;7.628;2023-05-07T13:22:39;25.70;99.90
2999;DHT22;1509;51.964;7.628;2023-05-07T13:25:05;25.60;99.90
2999;DHT22;1509;51.964;7.628;2023-05-07T13:27:31;25.80;99.90
2999;DHT22;1509;51.964;7.628;2023-05-07T13:29:57;25.70;99.90
2999;DHT22;1509;51.964;7.628;2023-05-07T13:32:22;26.00;99.90
2999;DHT22;1509;51.964;7.628;2023-05-07T13:34:48;26.20;99.90
2999;DHT22;1509;51.964;7.628;2023-05-07T13:37:14;26.00;99.90
2999;DHT22;1509;51.964;7.628;2023-05-07T13:39:45;26.20;99.90
2999;DHT22;1509;51.964;7.628;2023-05-07T13:42:11;26.10;99.90
2999;DHT22;1509;51.964;7.628;2023-05-07T13:44:36;26.00;99.90
2999;DHT22;1509;51.964;7.628;2023-05-07T13:47:02;26.20;99.90
2999;DHT22;1509;51.964;7.628;2023-05-07T13:49:28;26.00;99.90
2999;DHT22;1509;51.964;7.628;2023-05-07T13:51:53;25.70;99.90
2999;DHT22;1509;51.964;7.628;2023-05-07T13:54:22;25.60;99.90
2999;DHT22;1509;51.964;7.628;2023-05-07T13:56:47;25.40;99.90
2999;DHT22;1509;51.964;7.628;2023-05-07T13:59:13;24.90;99.90
2999;DHT22;1509;51.964;7.628;2023-05-07T14:01:40;24.60;99.90
2999;DHT22;1509;51.964;7.628;2023-05-07T14:06:31;23.80;99.90
2999;DHT22;1509;51.964;7.628;2023-05-07T14:08:57;23.50;99.90
2999;DHT22;1509;51.964;7.628;2023-05-07T14:11:23;23.60;99.90
2999;DHT22;1509;51.964;7.628;2023-05-07T14:13:49;23.90;99.90
2999;DHT22;1509;51.964;7.628;2023-05-07T14:16:15;24.10;99.90
2999;DHT22;1509;51.964;7.628;2023-05-07T14:18:40;24.20;99.90
2999;DHT22;1509;51.964;7.628;2023-05-07T14:21:06;24.20;99.90
2999;DHT22;1509;51.964;7.628;2023-05-07T14:23:32;23.70;99.90
2999;DHT22;1509;51.964;7.628;2023-05-07T14:25:58;23.70;99.90
2999;DHT22;1509;51.964;7.628;2023-05-07T14:28:26;23.50;99.90
2999;DHT22;1509;51.964;7.628;2023-05-07T14:30:52;23.40;99.90
2999;DHT22;1509;51.964;7.628;2023-05-07T14:33:17;22.50;99.90
2999;DHT22;1509;51.964;7.628;2023-05-07T14:35:43;22.20;99.90
2999;DHT22;1509;51.964;7.628;2023-05-07T14:38:13;22.10;99.90
2999;DHT22;1509;51.964;7.628;2023-05-07T14:40:38;22.20;99.90
2999;DHT22;1509;51.964;7.628;2023-05-07T14:43:04;22.30;99.90
2999;DHT22;1509;51.964;7.628;2023-05-07T14:45:30;22.40;99.90
2999;DHT22;1509;51.964;7.628;2023-05-07T14:47:55;22.50;99.90
2999;DHT22;1509;51.964;7.628;2023-05-07T14:50:21;22.50;99.90
2999;DHT22;1509;51.964;7.628;2023-05-07T14:52:47;22.60;99.90
2999;DHT22;1509;51.964;7.628;2023-05-07T14:55:15;22.80;99.90
2999;DHT22;1509;51.964;7.628;2023-05-07T14:57:43;22.90;99.90
2999;DHT22;1509;51.964;7.628;2023-05-07T15:02:36;22.90;99.90
2999;DHT22;1509;51.964;7.628;2023-05-07T15:05:02;22.90;99.90
2999;DHT22;1509;51.964;7.628;2023-05-07T15:07:28;23.10;99.90
2999;DHT22;1509;51.964;7.628;2023-05-07T15:09:54;22.80;99.90
2999;DHT22;1509;51.964;7.628;2023-05-07T15:12:22;22.60;99.90
2999;DHT22;1509;51.964;7.628;2023-05-07T15:14:48;22.50;99.90
2999;DHT22;1509;51.964;7.628;2023-05-07T15:17:14;22.50;99.90
2999;DHT22;1509;51.964;7.628;2023-05-07T15:19:40;22.50;99.90
2999;DHT22;1509;51.964;7.628;2023-05-07T15:22:06;22.20;99.90
2999;DHT22;1509;51.964;7.628;2023-05-07T15:24:31;22.20;99.90
2999;DHT22;1509;51.964;7.628;2023-05-07T15:26:57;22.30;99.90
2999;DHT22;1509;51.964;7.628;2023-05-07T15:29:29;22.30;99.90
2999;DHT22;1509;51.964;7.628;2023-05-07T15:31:55;22.30;99.90
2999;DHT22;1509;51.964;7.628;2023-05-07T15:34:22;22.30;99.90
2999;DHT22;1509;51.964;7.628;2023-05-07T15:36:49;22.20;99.90
2999;DHT22;1509;51.964;7.628;2023-05-07T15:39:15;22.20;99.90
2999;DHT22;1509;51.964;7.628;2023-05-07T15:41:41;22.10;99.90
2999;DHT22;1509;51.964;7.628;2023-05-07T15:44:09;22.10;99.90
2999;DHT22;1509;51.964;7.628;2023-05-07T15:46:35;21.90;99.90
2999;DHT22;1509;51.964;7.628;2023-05-07T15:49:02;21.80;99.90
2999;DHT22;1509;51.964;7.628;2023-05-07T15:51:29;21.80;99.90
2999;DHT22;1509;51.964;7.628;2023-05-07T15:53:56;21.70;99.90
2999;DHT22;1509;51.964;7.628;2023-05-07T15:56:22;21.60;99.90
2999;DHT22;1509;51.964;7.628;2023-05-07T15:58:48;21.50;99.90
2999;DHT22;1509;51.964;7.628;2023-05-07T16:01:14;21.70;99.90
2999;DHT22;1509;51.964;7.628;2023-05-07T16:03:39;21.90;99.90
2999;DHT22;1509;51.964;7.628;2023-05-07T16:06:06;21.90;99.90
2999;DHT22;1509;51.964;7.628;2023-05-07T16:08:32;21.90;99.90
2999;DHT22;1509;51.964;7.628;2023-05-07T16:11:00;21.90;99.90
2999;DHT22;1509;51.964;7.628;2023-05-07T16:13:26;21.80;99.90
2999;DHT22;1509;51.964;7.628;2023-05-07T16:15:55;21.70;99.90
2999;DHT22;1509;51.964;7.628;2023-05-07T16:18:24;21.60;99.90
2999;DHT22;1509;51.964;7.628;2023-05-07T16:20:49;21.50;99.90
2999;DHT22;1509;51.964;7.628;2023-05-07T16:23:15;21.60;99.90
2999;DHT22;1509;51.964;7.628;2023-05-07T16:25:41;21.50;99.90
2999;DHT22;1509;51.964;7.628;2023-05-07T16:28:06;21.50;99.90
2999;DHT22;1509;51.964;7.628;2023-05-07T16:30:32;21.40;99.90
2999;DHT22;1509;51.964;7.628;2023-05-07T16:32:58;21.40;99.90
2999;DHT22;1509;51.964;7.628;2023-05-07T16:35:23;21.30;99.90
2999;DHT22;1509;51.964;7.628;2023-05-07T16:37:49;21.20;99.90
2999;DHT22;1509;51.964;7.628;2023-05-07T16:40:15;21.10;99.90
2999;DHT22;1509;51.964;7.628;2023-05-07T16:42:41;21.00;99.90
2999;DHT22;1509;51.964;7.628;2023-05-07T16:45:07;21.00;99.90
2999;DHT22;1509;51.964;7.628;2023-05-07T16:47:33;21.00;99.90
2999;DHT22;1509;51.964;7.628;2023-05-07T16:49:58;21.00;99.90
2999;DHT22;1509;51.964;7.628;2023-05-07T16:52:30;20.90;99.90
2999;DHT22;1509;51.964;7.628;2023-05-07T16:54:56;20.90;99.90
2999;DHT22;1509;51.964;7.628;2023-05-07T16:57:28;20.80;99.90
2999;DHT22;1509;51.964;7.628;2023-05-07T16:59:55;20.80;99.90
2999;DHT22;1509;51.964;7.628;2023-05-07T17:02:21;20.90;99.90
2999;DHT22;1509;51.964;7.628;2023-05-07T17:04:47;20.80;99.90
2999;DHT22;1509;51.964;7.628;2023-05-07T17:07:12;20.70;99.90
2999;DHT22;1509;51.964;7.628;2023-05-07T17:09:39;20.70;99.90
2999;DHT22;1509;51.964;7.628;2023-05-07T17:12:05;20.70;99.90
2999;DHT22;1509;51.964;7.628;2023-05-07T17:16:56;19.40;99.90
2999;DHT22;1509;51.964;7.628;2023-05-07T17:24:14;20.30;99.90
2999;DHT22;1509;51.964;7.628;2023-05-07T17:29:08;20.20;99.90
2999;DHT22;1509;51.964;7.628;2023-05-07T17:31:34;20.20;99.90
2999;DHT22;1509;51.964;7.628;2023-05-07T17:33:59;20.10;99.90
2999;DHT22;1509;51.964;7.628;2023-05-07T17:51:02;20.20;99.90
2999;DHT22;1509;51.964;7.628;2023-05-07T17:53:28;19.60;99.90
2999;DHT22;1509;51.964;7.628;2023-05-07T17:58:20;19.60;99.90
2999;DHT22;1509;51.964;7.628;2023-05-07T18:00:47;19.50;99.90
2999;DHT22;1509;51.964;7.628;2023-05-07T18:03:13;19.40;99.90
2999;DHT22;1509;51.964;7.628;2023-05-07T18:05:38;19.40;99.90
2999;DHT22;1509;51.964;7.628;2023-05-07T18:08:06;19.30;99.90
2999;DHT22;1509;51.964;7.628;2023-05-07T18:10:31;19.20;99.90
2999;DHT22;1509;51.964;7.628;2023-05-07T18:12:57;19.20;99.90
2999;DHT22;1509;51.964;7.628;2023-05-07T18:15:23;19.10;99.90
2999;DHT22;1509;51.964;7.628;2023-05-07T18:17:48;19.30;99.90
2999;DHT22;1509;51.964;7.628;2023-05-07T18:20:14;19.10;99.90
2999;DHT22;1509;51.964;7.628;2023-05-07T18:22:40;19.10;99.90
2999;DHT22;1509;51.964;7.628;2023-05-07T18:25:08;19.00;99.90
2999;DHT22;1509;51.964;7.628;2023-05-07T18:27:34;19.00;99.90
2999;DHT22;1509;51.964;7.628;2023-05-07T18:29:59;18.90;99.90
2999;DHT22;1509;51.964;7.628;2023-05-07T18:32:25;18.90;99.90
2999;DHT22;1509;51.964;7.628;2023-05-07T18:34:51;18.90;99.90
2999;DHT22;1509;51.964;7.628;2023-05-07T18:37:18;18.80;99.90
2999;DHT22;1509;51.964;7.628;2023-05-07T18:39:44;18.90;99.90
2999;DHT22;1509;51.964;7.628;2023-05-07T18:42:11;18.80;99.90
2999;DHT22;1509;51.964;7.628;2023-05-07T18:44:37;18.90;99.90
2999;DHT22;1509;51.964;7.628;2023-05-07T18:47:04;18.90;99.90
2999;DHT22;1509;51.964;7.628;2023-05-07T18:49:30;18.90;99.90
2999;DHT22;1509;51.964;7.628;2023-05-07T18:51:56;18.80;99.90
2999;DHT22;1509;51.964;7.628;2023-05-07T18:54:22;18.80;99.90
2999;DHT22;1509;51.964;7.628;2023-05-07T18:56:48;18.70;99.90
2999;DHT22;1509;51.964;7.628;2023-05-07T18:59:14;18.80;99.90
2999;DHT22;1509;51.964;7.628;2023-05-07T19:01:39;18.70;99.90
2999;DHT22;1509;51.964;7.628;2023-05-07T19:04:05;18.60;99.90
2999;DHT22;1509;51.964;7.628;2023-05-07T19:06:31;18.60;99.90
2999;DHT22;1509;51.964;7.628;2023-05-07T19:08:57;18.60;99.90
2999;DHT22;1509;51.964;7.628;2023-05-07T19:11:23;18.50;99.90
2999;DHT22;1509;51.964;7.628;2023-05-07T19:13:49;18.50;99.90
2999;DHT22;1509;51.964;7.628;2023-05-07T19:16:14;18.50;99.90
2999;DHT22;1509;51.964;7.628;2023-05-07T19:18:40;18.50;99.90
2999;DHT22;1509;51.964;7.628;2023-05-07T19:21:07;18.50;99.90
2999;DHT22;1509;51.964;7.628;2023-05-07T19:23:33;18.50;99.90
2999;DHT22;1509;51.964;7.628;2023-05-07T19:26:01;18.50;99.90
2999;DHT22;1509;51.964;7.628;2023-05-07T19:28:27;18.50;99.90
2999;DHT22;1509;51.964;7.628;2023-05-07T19:30:54;18.50;99.90
2999;DHT22;1509;51.964;7.628;2023-05-07T19:33:21;18.40;99.90
2999;DHT22;1509;51.964;7.628;2023-05-07T19:35:47;18.30;99.90
2999;DHT22;1509;51.964;7.628;2023-05-07T19:38:13;18.30;99.90
2999;DHT22;1509;51.964;7.628;2023-05-07T19:40:38;18.30;99.90
2999;DHT22;1509;51.964;7.628;2023-05-07T19:43:04;18.20;99.90
2999;DHT22;1509;51.964;7.628;2023-05-07T19:45:29;18.10;99.90
2999;DHT22;1509;51.964;7.628;2023-05-07T19:47:55;18.00;99.90
2999;DHT22;1509;51.964;7.628;2023-05-07T19:50:21;18.00;99.90
2999;DHT22;1509;51.964;7.628;2023-05-07T19:52:47;18.00;99.90
2999;DHT22;1509;51.964;7.628;2023-05-07T19:55:12;18.00;99.90
2999;DHT22;1509;51.964;7.628;2023-05-07T19:57:38;17.90;99.90
2999;DHT22;1509;51.964;7.628;2023-05-07T20:00:05;17.80;99.90
2999;DHT22;1509;51.964;7.628;2023-05-07T20:02:31;17.80;99.90
2999;DHT22;1509;51.964;7.628;2023-05-07T20:04:57;17.80;99.90
2999;DHT22;1509;51.964;7.628;2023-05-07T20:07:23;17.80;99.90
2999;DHT22;1509;51.964;7.628;2023-05-07T20:09:48;17.70;99.90
2999;DHT22;1509;51.964;7.628;2023-05-07T20:12:14;17.70;99.90
2999;DHT22;1509;51.964;7.628;2023-05-07T20:14:40;17.70;99.90
2999;DHT22;1509;51.964;7.628;2023-05-07T20:17:05;17.60;99.90
2999;DHT22;1509;51.964;7.628;2023-05-07T20:19:31;17.60;99.90
2999;DHT22;1509;51.964;7.628;2023-05-07T20:21:57;17.60;99.90
2999;DHT22;1509;51.964;7.628;2023-05-07T20:24:22;17.60;99.90
2999;DHT22;1509;51.964;7.628;2023-05-07T20:26:48;17.60;99.90
2999;DHT22;1509;51.964;7.628;2023-05-07T20:29:14;17.60;99.90
2999;DHT22;1509;51.964;7.628;2023-05-07T20:31:40;17.60;99.90
2999;DHT22;1509;51.964;7.628;2023-05-07T20:34:06;17.60;99.90
2999;DHT22;1509;51.964;7.628;2023-05-07T20:36:32;17.50;99.90
2999;DHT22;1509;51.964;7.628;2023-05-07T20:38:58;17.50;99.90